Time;durP1;ratioP1;P1;durP2;ratioP2;P2;SDS_P1;SDS_P2;PMS_P1;PMS_P2;Temp;Humidity;BMP_temperature;BMP_pressure;BME280_temperature;BME280_humidity;BME280_pressure;Samples;Min_cycle;Max_cycle;Signal;HPM_P1;HPM_P2
2023/03/07 00:01:03;;;;;;;16.50;5.70;;;;;;;;;;5071220;28;20280;-69
2023/03/07 00:03:30;;;;;;;14.70;6.67;;;;;;;;;;5071553;28;20210;-69
2023/03/07 00:06:04;;;;;;;14.90;6.70;;;;;;;;;;5069365;28;20335;-69
2023/03/07 00:08:32;;;;;;;14.13;6.23;;;;;;;;;;5066235;28;20517;-68
2023/03/07 00:11:01;;;;;;;11.70;5.87;;;;;;;;;;5067639;28;20200;-69
2023/03/07 00:13:30;;;;;;;13.83;6.07;;;;;;;;;;5061930;28;20914;-69
2023/03/07 00:16:00;;;;;;;12.03;6.33;;;;;;;;;;5065992;28;20234;-69
2023/03/07 00:18:27;;;;;;;12.50;5.90;;;;;;;;;;5070645;28;20199;-68
2023/03/07 00:20:57;;;;;;;11.47;6.17;;;;;;;;;;5062911;28;21039;-69
2023/03/07 00:23:25;;;;;;;13.33;6.93;;;;;;;;;;5066020;28;20302;-69
2023/03/07 00:25:58;;;;;;;13.80;6.90;;;;;;;;;;5065372;28;20234;-68
2023/03/07 00:28:25;;;;;;;13.50;6.53;;;;;;;;;;5063447;28;20199;-67
2023/03/07 00:30:52;;;;;;;12.53;6.37;;;;;;;;;;5066657;28;20199;-68
2023/03/07 00:33:19;;;;;;;14.17;6.77;;;;;;;;;;5064743;28;20587;-68
2023/03/07 00:35:54;;;;;;;15.70;6.67;;;;;;;;;;5067702;28;20207;-68
2023/03/07 00:38:21;;;;;;;16.33;7.23;;;;;;;;;;5059236;28;20234;-67
2023/03/07 00:40:48;;;;;;;20.97;6.83;;;;;;;;;;5065800;28;20235;-69
2023/03/07 00:43:16;;;;;;;15.30;6.33;;;;;;;;;;5073414;28;20658;-67
2023/03/07 00:45:43;;;;;;;15.60;7.13;;;;;;;;;;5075503;28;20272;-68
2023/03/07 00:48:10;;;;;;;16.03;6.43;;;;;;;;;;5068515;28;20673;-67
2023/03/07 00:50:37;;;;;;;12.63;5.87;;;;;;;;;;5076445;28;20680;-68
2023/03/07 00:53:04;;;;;;;7.50;5.70;;;;;;;;;;5078760;28;20217;-68
2023/03/07 00:55:31;;;;;;;13.57;6.00;;;;;;;;;;5069490;28;20623;-68
2023/03/07 00:57:58;;;;;;;9.37;5.33;;;;;;;;;;5080694;28;20252;-67
2023/03/07 01:00:27;;;;;;;11.13;6.50;;;;;;;;;;5070646;28;20623;-67
2023/03/07 01:02:56;;;;;;;13.90;5.87;;;;;;;;;;5070822;28;20209;-68
2023/03/07 01:05:23;;;;;;;17.07;7.23;;;;;;;;;;5067967;28;20294;-68
2023/03/07 01:07:50;;;;;;;11.03;6.23;;;;;;;;;;5061669;28;20203;-68
2023/03/07 01:10:17;;;;;;;12.30;6.30;;;;;;;;;;5071669;28;20375;-68
2023/03/07 01:12:44;;;;;;;14.20;5.97;;;;;;;;;;5085763;28;20264;-68
2023/03/07 01:15:12;;;;;;;14.30;6.77;;;;;;;;;;5079369;28;20206;-68
2023/03/07 01:17:40;;;;;;;11.87;5.53;;;;;;;;;;5075643;28;20199;-68
2023/03/07 01:20:08;;;;;;;11.33;6.37;;;;;;;;;;5068789;28;20226;-68
2023/03/07 01:22:35;;;;;;;12.57;6.07;;;;;;;;;;5067846;28;20292;-68
2023/03/07 01:25:02;;;;;;;13.40;6.70;;;;;;;;;;5083160;28;20738;-68
2023/03/07 01:27:29;;;;;;;11.93;6.27;;;;;;;;;;5084765;28;20214;-69
2023/03/07 01:29:56;;;;;;;12.07;6.23;;;;;;;;;;5071650;28;20228;-68
2023/03/07 01:32:23;;;;;;;17.20;6.03;;;;;;;;;;5067920;28;20207;-68
2023/03/07 01:34:51;;;;;;;11.10;6.13;;;;;;;;;;5073038;28;20206;-69
2023/03/07 01:37:18;;;;;;;21.23;8.20;;;;;;;;;;5070121;28;20238;-68
2023/03/07 01:39:46;;;;;;;13.23;6.20;;;;;;;;;;5062272;28;20202;-68
2023/03/07 01:42:13;;;;;;;14.67;6.83;;;;;;;;;;5087268;28;20226;-68
2023/03/07 01:44:54;;;;;;;12.97;6.43;;;;;;;;;;5076596;28;20352;-69
2023/03/07 01:47:21;;;;;;;13.67;5.80;;;;;;;;;;5067117;28;20199;-68
2023/03/07 01:49:48;;;;;;;14.00;6.50;;;;;;;;;;5068601;28;20215;-68
2023/03/07 01:52:18;;;;;;;8.67;5.53;;;;;;;;;;5072525;28;20195;-68
2023/03/07 01:54:49;;;;;;;12.00;6.67;;;;;;;;;;5075674;28;20256;-68
2023/03/07 01:57:17;;;;;;;15.67;6.37;;;;;;;;;;5087299;28;20306;-67
2023/03/07 01:59:46;;;;;;;12.93;6.33;;;;;;;;;;5072730;28;20332;-68
2023/03/07 02:02:15;;;;;;;18.07;7.53;;;;;;;;;;5084955;28;20224;-68
2023/03/07 02:04:45;;;;;;;17.33;7.17;;;;;;;;;;5082317;28;20366;-68
2023/03/07 02:07:12;;;;;;;11.47;6.43;;;;;;;;;;5066714;28;20269;-68
2023/03/07 02:09:41;;;;;;;11.40;6.40;;;;;;;;;;5070721;28;20211;-68
2023/03/07 02:12:08;;;;;;;13.30;6.50;;;;;;;;;;5069634;28;20252;-68
2023/03/07 02:14:35;;;;;;;10.93;5.17;;;;;;;;;;5065327;28;20206;-68
2023/03/07 02:17:03;;;;;;;14.53;6.73;;;;;;;;;;5078408;28;20257;-68
2023/03/07 02:19:36;;;;;;;12.33;6.33;;;;;;;;;;5067195;28;20586;-68
2023/03/07 02:22:08;;;;;;;11.40;5.90;;;;;;;;;;5075785;28;20253;-68
2023/03/07 02:24:39;;;;;;;13.90;6.27;;;;;;;;;;5068352;28;20226;-67
2023/03/07 02:27:07;;;;;;;5.03;4.20;;;;;;;;;;5071478;28;20268;-69
2023/03/07 02:29:35;;;;;;;11.80;5.03;;;;;;;;;;5069320;28;20262;-69
2023/03/07 02:32:02;;;;;;;10.03;6.00;;;;;;;;;;5067073;28;20210;-68
2023/03/07 02:34:31;;;;;;;10.53;5.50;;;;;;;;;;5070194;28;20824;-68
2023/03/07 02:36:59;;;;;;;6.50;4.57;;;;;;;;;;5079176;28;20349;-69
2023/03/07 02:39:28;;;;;;;8.70;5.40;;;;;;;;;;5069127;28;20206;-68
2023/03/07 02:41:56;;;;;;;9.30;5.33;;;;;;;;;;5082954;28;20227;-69
2023/03/07 02:44:25;;;;;;;9.10;5.10;;;;;;;;;;5068131;28;20233;-68
2023/03/07 02:46:52;;;;;;;6.97;5.07;;;;;;;;;;5074947;28;20215;-68
2023/03/07 02:49:19;;;;;;;9.40;5.97;;;;;;;;;;5070575;28;20215;-68
2023/03/07 02:51:46;;;;;;;7.37;4.43;;;;;;;;;;5090947;28;20220;-68
2023/03/07 02:54:13;;;;;;;7.07;4.63;;;;;;;;;;5090631;28;20203;-69
2023/03/07 02:56:40;;;;;;;9.43;4.43;;;;;;;;;;5073291;28;20203;-68
2023/03/07 02:59:07;;;;;;;7.47;4.53;;;;;;;;;;5074162;28;20195;-68
2023/03/07 03:01:35;;;;;;;8.73;5.17;;;;;;;;;;5084784;28;20269;-68
2023/03/07 03:04:03;;;;;;;8.10;4.43;;;;;;;;;;5070946;28;20236;-68
2023/03/07 03:06:30;;;;;;;8.50;4.33;;;;;;;;;;5071407;28;20334;-68
2023/03/07 03:08:57;;;;;;;9.57;4.30;;;;;;;;;;5075194;28;20203;-68
2023/03/07 03:11:24;;;;;;;6.63;4.07;;;;;;;;;;5070283;28;20199;-68
2023/03/07 03:13:51;;;;;;;6.20;4.40;;;;;;;;;;5071763;28;20207;-68
2023/03/07 03:16:18;;;;;;;10.03;4.67;;;;;;;;;;5068590;28;20732;-68
2023/03/07 03:18:46;;;;;;;8.13;4.50;;;;;;;;;;5061438;28;20262;-68
2023/03/07 03:21:14;;;;;;;9.63;4.87;;;;;;;;;;5077220;28;20228;-68
2023/03/07 03:23:41;;;;;;;8.57;4.27;;;;;;;;;;5070789;28;20285;-68
2023/03/07 03:26:10;;;;;;;7.63;4.93;;;;;;;;;;5067820;28;20591;-70
2023/03/07 03:28:37;;;;;;;7.07;4.50;;;;;;;;;;5073830;28;20225;-68
2023/03/07 03:31:05;;;;;;;8.37;5.23;;;;;;;;;;5078544;28;20210;-68
2023/03/07 03:33:33;;;;;;;7.80;4.50;;;;;;;;;;5083560;28;20195;-68
2023/03/07 03:36:01;;;;;;;5.43;3.10;;;;;;;;;;5069789;28;20211;-68
2023/03/07 03:38:28;;;;;;;7.63;4.10;;;;;;;;;;5070651;28;20513;-68
2023/03/07 03:40:55;;;;;;;8.00;4.33;;;;;;;;;;5086370;28;20725;-68
2023/03/07 03:43:22;;;;;;;5.23;4.07;;;;;;;;;;5080477;28;20230;-68
2023/03/07 03:45:54;;;;;;;7.37;4.67;;;;;;;;;;5077625;28;20239;-68
2023/03/07 03:48:21;;;;;;;9.10;4.10;;;;;;;;;;5077987;28;20290;-69
2023/03/07 03:50:48;;;;;;;10.03;4.20;;;;;;;;;;5087018;28;20206;-68
2023/03/07 03:53:17;;;;;;;6.07;4.23;;;;;;;;;;5075682;28;20788;-68
2023/03/07 03:55:44;;;;;;;8.00;4.43;;;;;;;;;;5084359;28;20260;-69
2023/03/07 03:58:11;;;;;;;6.40;4.20;;;;;;;;;;5086963;28;20198;-68
2023/03/07 04:00:38;;;;;;;4.57;3.83;;;;;;;;;;5082205;28;20730;-68
2023/03/07 04:03:05;;;;;;;5.17;3.33;;;;;;;;;;5086967;28;20232;-68
2023/03/07 04:05:33;;;;;;;5.77;3.67;;;;;;;;;;5079675;28;20668;-69
2023/03/07 04:08:00;;;;;;;5.00;3.17;;;;;;;;;;5087126;28;20303;-69
2023/03/07 04:10:29;;;;;;;5.07;4.00;;;;;;;;;;5076227;28;20199;-69
2023/03/07 04:12:56;;;;;;;5.00;3.67;;;;;;;;;;5079005;28;20269;-68
2023/03/07 04:15:23;;;;;;;6.70;4.90;;;;;;;;;;5073726;28;20252;-69
2023/03/07 04:17:50;;;;;;;7.07;3.80;;;;;;;;;;5070517;28;20203;-68
2023/03/07 04:20:17;;;;;;;6.43;4.27;;;;;;;;;;5070827;28;20681;-68
2023/03/07 04:22:45;;;;;;;5.77;4.00;;;;;;;;;;5068001;28;20265;-68
2023/03/07 04:25:12;;;;;;;6.73;3.43;;;;;;;;;;5070940;28;20203;-68
2023/03/07 04:27:40;;;;;;;6.87;4.60;;;;;;;;;;5073818;28;20210;-68
2023/03/07 04:30:08;;;;;;;6.67;4.27;;;;;;;;;;5079945;28;20263;-68
2023/03/07 04:32:35;;;;;;;8.07;4.53;;;;;;;;;;5076977;28;20248;-68
2023/03/07 04:35:02;;;;;;;9.80;4.70;;;;;;;;;;5086032;28;20210;-68
2023/03/07 04:37:30;;;;;;;7.13;4.43;;;;;;;;;;5081172;28;20236;-68
2023/03/07 04:39:57;;;;;;;5.23;3.57;;;;;;;;;;5078986;28;20214;-69
2023/03/07 04:42:24;;;;;;;10.00;4.37;;;;;;;;;;5069013;28;20223;-68
2023/03/07 04:44:52;;;;;;;5.87;3.90;;;;;;;;;;5060538;28;20203;-69
2023/03/07 04:47:19;;;;;;;7.30;4.53;;;;;;;;;;5077377;28;20214;-68
2023/03/07 04:49:46;;;;;;;12.17;5.20;;;;;;;;;;5079318;28;20211;-68
2023/03/07 04:52:13;;;;;;;9.00;4.23;;;;;;;;;;5086396;28;20203;-68
2023/03/07 04:54:40;;;;;;;10.23;4.73;;;;;;;;;;5082655;28;20216;-68
2023/03/07 04:57:08;;;;;;;6.57;3.87;;;;;;;;;;5075275;28;20588;-68
2023/03/07 04:59:38;;;;;;;11.40;5.63;;;;;;;;;;5071361;28;20298;-68
2023/03/07 05:02:06;;;;;;;11.03;5.03;;;;;;;;;;5058762;28;20254;-68
2023/03/07 05:04:33;;;;;;;5.63;3.97;;;;;;;;;;5075953;28;20390;-69
2023/03/07 05:07:00;;;;;;;10.67;6.07;;;;;;;;;;5072998;28;20214;-69
2023/03/07 05:09:27;;;;;;;11.07;4.60;;;;;;;;;;5085635;28;20757;-69
2023/03/07 05:11:54;;;;;;;12.33;6.10;;;;;;;;;;5067959;28;20294;-68
2023/03/07 05:14:21;;;;;;;9.40;5.70;;;;;;;;;;5084653;28;20218;-69
2023/03/07 05:16:48;;;;;;;11.10;4.70;;;;;;;;;;5071703;28;20222;-68
2023/03/07 05:19:16;;;;;;;7.57;4.70;;;;;;;;;;5087796;28;20218;-70
2023/03/07 05:21:44;;;;;;;7.80;4.70;;;;;;;;;;5068097;28;20285;-67
2023/03/07 05:24:11;;;;;;;13.00;5.27;;;;;;;;;;5069076;28;20384;-67
2023/03/07 05:26:38;;;;;;;7.33;5.13;;;;;;;;;;5052533;28;20570;-68
2023/03/07 05:29:05;;;;;;;8.23;4.90;;;;;;;;;;5085137;28;20198;-67
2023/03/07 05:31:32;;;;;;;10.57;5.63;;;;;;;;;;5078353;28;20194;-68
2023/03/07 05:33:59;;;;;;;10.90;5.50;;;;;;;;;;5087575;28;20301;-68
2023/03/07 05:36:27;;;;;;;8.33;4.67;;;;;;;;;;5073155;28;20624;-68
2023/03/07 05:38:55;;;;;;;9.57;4.97;;;;;;;;;;5077128;28;20238;-68
2023/03/07 05:41:23;;;;;;;8.73;4.87;;;;;;;;;;5081128;28;20202;-68
2023/03/07 05:43:50;;;;;;;11.50;5.07;;;;;;;;;;5076021;28;20763;-68
2023/03/07 05:46:17;;;;;;;9.83;4.90;;;;;;;;;;5087013;28;20198;-68
2023/03/07 05:48:44;;;;;;;9.13;4.77;;;;;;;;;;5079977;28;20313;-68
2023/03/07 05:51:11;;;;;;;11.00;5.87;;;;;;;;;;5084255;28;20263;-74
2023/03/07 05:53:39;;;;;;;7.17;4.37;;;;;;;;;;5085959;28;20697;-70
2023/03/07 05:56:07;;;;;;;7.20;4.43;;;;;;;;;;5086407;28;20205;-67
2023/03/07 05:58:34;;;;;;;7.73;5.00;;;;;;;;;;5075005;28;20206;-68
2023/03/07 06:01:02;;;;;;;5.20;4.57;;;;;;;;;;5078143;28;20738;-68
2023/03/07 06:03:29;;;;;;;4.70;3.00;;;;;;;;;;5066187;28;20714;-68
2023/03/07 06:05:56;;;;;;;9.30;5.47;;;;;;;;;;5078435;28;20207;-68
2023/03/07 06:08:23;;;;;;;9.17;4.77;;;;;;;;;;5066454;28;20211;-70
2023/03/07 06:10:52;;;;;;;11.00;4.73;;;;;;;;;;5059432;28;20211;-68
2023/03/07 06:13:20;;;;;;;10.77;5.80;;;;;;;;;;5067974;28;20685;-70
2023/03/07 06:15:49;;;;;;;10.57;6.37;;;;;;;;;;5079618;28;20309;-69
2023/03/07 06:18:16;;;;;;;7.93;4.73;;;;;;;;;;5056043;28;20295;-69
2023/03/07 06:20:43;;;;;;;8.97;5.37;;;;;;;;;;5089294;28;20210;-66
2023/03/07 06:23:10;;;;;;;11.20;5.33;;;;;;;;;;5084119;28;20345;-69
2023/03/07 06:25:37;;;;;;;5.77;4.57;;;;;;;;;;5083045;28;20273;-69
2023/03/07 06:28:06;;;;;;;7.50;4.13;;;;;;;;;;5071922;28;20272;-68
2023/03/07 06:30:33;;;;;;;7.33;4.20;;;;;;;;;;5070622;28;20237;-69
2023/03/07 06:33:00;;;;;;;6.50;4.83;;;;;;;;;;5073942;28;20355;-68
2023/03/07 06:35:27;;;;;;;9.50;4.80;;;;;;;;;;5072913;28;20220;-68
2023/03/07 06:37:54;;;;;;;8.23;5.17;;;;;;;;;;5074388;28;20551;-68
2023/03/07 06:40:21;;;;;;;7.13;4.17;;;;;;;;;;5070825;28;20222;-68
2023/03/07 06:42:48;;;;;;;10.67;5.27;;;;;;;;;;5069894;28;20701;-68
2023/03/07 06:45:17;;;;;;;6.50;4.13;;;;;;;;;;5078521;28;20250;-70
2023/03/07 06:47:44;;;;;;;6.70;4.43;;;;;;;;;;5083996;28;20198;-70
2023/03/07 06:50:11;;;;;;;8.47;5.27;;;;;;;;;;5071806;28;20217;-68
2023/03/07 06:52:55;;;;;;;9.03;4.50;;;;;;;;;;5072085;28;20199;-68
2023/03/07 06:55:22;;;;;;;6.00;4.33;;;;;;;;;;5086886;28;20233;-68
2023/03/07 06:57:49;;;;;;;9.03;5.30;;;;;;;;;;5076772;28;20272;-68
2023/03/07 07:00:19;;;;;;;8.60;4.30;;;;;;;;;;5050348;28;20587;-68
2023/03/07 07:02:46;;;;;;;8.87;4.97;;;;;;;;;;5066327;28;20265;-68
2023/03/07 07:05:13;;;;;;;8.33;5.47;;;;;;;;;;5070268;28;20210;-70
2023/03/07 07:07:40;;;;;;;5.23;3.93;;;;;;;;;;5069563;28;20665;-68
2023/03/07 07:10:07;;;;;;;8.23;4.53;;;;;;;;;;5061514;28;20212;-68
2023/03/07 07:12:34;;;;;;;9.03;5.63;;;;;;;;;;5068413;28;20230;-68
2023/03/07 07:15:03;;;;;;;6.20;4.53;;;;;;;;;;5070049;28;20790;-68
2023/03/07 07:17:34;;;;;;;7.90;4.70;;;;;;;;;;5070047;28;20565;-63
2023/03/07 07:20:01;;;;;;;7.00;4.47;;;;;;;;;;5070101;28;20763;-62
2023/03/07 07:22:28;;;;;;;6.13;4.00;;;;;;;;;;5070093;28;20230;-67
2023/03/07 07:24:55;;;;;;;8.17;4.87;;;;;;;;;;5070123;28;20216;-66
2023/03/07 07:27:22;;;;;;;8.43;5.30;;;;;;;;;;5069911;28;20233;-67
2023/03/07 07:29:49;;;;;;;12.67;5.70;;;;;;;;;;5070192;28;20220;-66
2023/03/07 07:32:16;;;;;;;8.33;4.37;;;;;;;;;;5069503;28;20261;-67
2023/03/07 07:34:44;;;;;;;6.80;4.10;;;;;;;;;;5069837;28;20206;-66
2023/03/07 07:37:11;;;;;;;8.30;4.67;;;;;;;;;;5069827;28;20246;-67
2023/03/07 07:39:40;;;;;;;10.30;5.03;;;;;;;;;;5069657;28;20637;-67
2023/03/07 07:42:07;;;;;;;4.50;3.80;;;;;;;;;;5069569;28;20219;-67
2023/03/07 07:44:36;;;;;;;6.57;3.87;;;;;;;;;;5069247;28;20238;-66
2023/03/07 07:47:03;;;;;;;6.27;3.80;;;;;;;;;;5068980;28;20309;-66
2023/03/07 07:49:30;;;;;;;6.83;4.17;;;;;;;;;;5068642;28;20268;-66
2023/03/07 07:51:58;;;;;;;7.43;4.37;;;;;;;;;;5068802;28;20210;-65
2023/03/07 07:54:25;;;;;;;5.33;3.53;;;;;;;;;;5069128;28;20215;-66
2023/03/07 07:56:52;;;;;;;7.70;4.60;;;;;;;;;;5068801;28;20217;-66
2023/03/07 07:59:19;;;;;;;6.10;4.23;;;;;;;;;;5068452;28;20214;-65
2023/03/07 08:01:46;;;;;;;6.80;4.07;;;;;;;;;;5068876;28;20323;-66
2023/03/07 08:04:13;;;;;;;6.90;4.40;;;;;;;;;;5068529;28;20235;-66
2023/03/07 08:06:43;;;;;;;6.73;4.83;;;;;;;;;;5074466;28;20263;-66
2023/03/07 08:09:11;;;;;;;6.37;4.40;;;;;;;;;;5087026;28;20447;-65
2023/03/07 08:11:38;;;;;;;5.30;3.50;;;;;;;;;;5089028;28;20339;-66
2023/03/07 08:14:05;;;;;;;11.00;4.43;;;;;;;;;;5076568;28;20352;-66
2023/03/07 08:16:32;;;;;;;6.37;4.23;;;;;;;;;;5084586;28;20206;-65
2023/03/07 08:19:00;;;;;;;12.40;4.73;;;;;;;;;;5085537;28;20225;-65
2023/03/07 08:21:27;;;;;;;7.43;4.57;;;;;;;;;;5067858;28;20811;-65
2023/03/07 08:23:54;;;;;;;5.23;3.30;;;;;;;;;;5069580;28;20261;-66
2023/03/07 08:26:23;;;;;;;9.43;4.43;;;;;;;;;;5087616;28;20316;-65
2023/03/07 08:28:50;;;;;;;5.73;3.90;;;;;;;;;;5048513;28;20615;-65
2023/03/07 08:31:18;;;;;;;7.00;4.40;;;;;;;;;;5048833;28;20690;-66
2023/03/07 08:33:46;;;;;;;5.23;3.23;;;;;;;;;;5069276;28;20210;-65
2023/03/07 08:36:13;;;;;;;5.73;3.73;;;;;;;;;;5069103;28;20222;-66
2023/03/07 08:38:40;;;;;;;5.60;3.30;;;;;;;;;;5087002;28;20683;-65
2023/03/07 08:41:08;;;;;;;6.40;3.50;;;;;;;;;;5089307;28;20240;-65
2023/03/07 08:43:38;;;;;;;3.80;3.50;;;;;;;;;;5071080;28;20280;-65
2023/03/07 08:46:05;;;;;;;4.57;3.83;;;;;;;;;;5088837;28;20707;-65
2023/03/07 08:48:32;;;;;;;5.27;3.37;;;;;;;;;;5072835;28;20614;-66
2023/03/07 08:51:04;;;;;;;4.10;3.67;;;;;;;;;;5068833;28;20219;-66
2023/03/07 08:53:31;;;;;;;5.63;3.53;;;;;;;;;;5083362;28;20202;-65
2023/03/07 08:55:58;;;;;;;6.60;3.93;;;;;;;;;;5078193;28;20219;-66
2023/03/07 08:58:25;;;;;;;6.17;4.10;;;;;;;;;;5087395;28;20205;-66
2023/03/07 09:00:53;;;;;;;5.03;3.30;;;;;;;;;;5085075;28;20210;-66
2023/03/07 09:03:20;;;;;;;4.97;3.37;;;;;;;;;;5077338;28;20579;-66
2023/03/07 09:05:47;;;;;;;5.47;3.23;;;;;;;;;;5068482;28;20211;-66
2023/03/07 09:08:14;;;;;;;9.03;3.90;;;;;;;;;;5068061;28;20203;-65
2023/03/07 09:10:41;;;;;;;6.30;3.73;;;;;;;;;;5068480;28;20207;-66
2023/03/07 09:13:08;;;;;;;5.90;3.37;;;;;;;;;;5068364;28;20210;-67
2023/03/07 09:15:35;;;;;;;2.80;2.60;;;;;;;;;;5068054;28;20211;-67
2023/03/07 09:18:04;;;;;;;5.67;3.57;;;;;;;;;;5068489;28;20260;-67
2023/03/07 09:20:31;;;;;;;5.13;2.87;;;;;;;;;;5068228;28;20268;-67
2023/03/07 09:22:58;;;;;;;2.90;2.70;;;;;;;;;;5067878;28;20223;-66
2023/03/07 09:25:25;;;;;;;3.43;2.70;;;;;;;;;;5076584;28;20199;-66
2023/03/07 09:27:53;;;;;;;3.63;2.53;;;;;;;;;;5072929;28;20204;-67
2023/03/07 09:30:21;;;;;;;4.40;3.10;;;;;;;;;;5071793;28;20207;-67
2023/03/07 09:32:48;;;;;;;4.80;3.13;;;;;;;;;;5077578;28;20217;-67
2023/03/07 09:35:16;;;;;;;3.53;3.03;;;;;;;;;;5086803;28;20202;-67
2023/03/07 09:37:43;;;;;;;6.57;3.40;;;;;;;;;;5086166;28;20237;-69
2023/03/07 09:40:15;;;;;;;3.73;3.23;;;;;;;;;;5081758;28;20210;-67
2023/03/07 09:42:57;;;;;;;3.50;2.93;;;;;;;;;;5087406;28;20205;-67
2023/03/07 09:45:31;;;;;;;3.47;3.03;;;;;;;;;;5085777;28;20251;-67
2023/03/07 09:48:08;;;;;;;4.27;3.40;;;;;;;;;;5070949;28;20214;-68
2023/03/07 09:50:41;;;;;;;4.57;3.07;;;;;;;;;;5068638;28;20213;-67
2023/03/07 09:53:13;;;;;;;3.07;2.53;;;;;;;;;;5082287;28;20213;-67
2023/03/07 09:55:40;;;;;;;2.93;2.73;;;;;;;;;;5074450;28;20684;-69
2023/03/07 09:58:10;;;;;;;3.10;2.80;;;;;;;;;;5085946;28;20218;-67
2023/03/07 10:00:39;;;;;;;4.77;3.00;;;;;;;;;;5066400;28;20200;-67
2023/03/07 10:03:11;;;;;;;3.70;2.70;;;;;;;;;;5070618;28;20294;-64
2023/03/07 10:05:40;;;;;;;5.17;3.20;;;;;;;;;;5078739;28;20198;-63
2023/03/07 10:08:09;;;;;;;3.30;3.00;;;;;;;;;;5080053;28;20268;-64
2023/03/07 10:10:38;;;;;;;3.03;2.73;;;;;;;;;;5072211;28;20194;-64
2023/03/07 10:13:13;;;;;;;2.90;2.17;;;;;;;;;;5082189;28;20217;-62
2023/03/07 10:15:44;;;;;;;4.80;3.30;;;;;;;;;;5066546;28;20202;-63
2023/03/07 10:18:24;;;;;;;3.27;2.87;;;;;;;;;;5070110;28;20210;-64
2023/03/07 10:20:58;;;;;;;5.77;3.20;;;;;;;;;;5060271;28;20249;-64
2023/03/07 10:23:29;;;;;;;4.17;3.03;;;;;;;;;;5068232;28;20216;-67
2023/03/07 10:25:59;;;;;;;3.23;2.67;;;;;;;;;;5074815;28;20285;-64
2023/03/07 10:28:27;;;;;;;3.47;2.97;;;;;;;;;;5067070;28;20206;-64
2023/03/07 10:30:57;;;;;;;5.67;3.30;;;;;;;;;;5050684;28;20219;-63
2023/03/07 10:33:26;;;;;;;5.87;3.47;;;;;;;;;;5051412;28;20678;-64
2023/03/07 10:35:57;;;;;;;6.00;3.30;;;;;;;;;;5073306;28;20236;-63
2023/03/07 10:38:29;;;;;;;8.23;3.43;;;;;;;;;;5083168;28;20882;-64
2023/03/07 10:40:57;;;;;;;6.37;2.87;;;;;;;;;;5069132;28;20202;-63
2023/03/07 10:43:25;;;;;;;6.00;3.23;;;;;;;;;;5067331;28;20206;-64
2023/03/07 10:45:54;;;;;;;4.63;2.03;;;;;;;;;;5074158;28;20206;-64
2023/03/07 10:48:21;;;;;;;3.70;2.80;;;;;;;;;;5054500;28;20404;-63
2023/03/07 10:50:51;;;;;;;4.97;3.37;;;;;;;;;;5063112;28;20266;-64
2023/03/07 10:53:25;;;;;;;3.13;2.57;;;;;;;;;;5071003;28;20203;-64
2023/03/07 10:55:52;;;;;;;3.03;2.60;;;;;;;;;;5070720;28;20758;-63
2023/03/07 10:58:23;;;;;;;2.73;2.20;;;;;;;;;;5055199;28;20632;-63
2023/03/07 11:01:01;;;;;;;5.97;2.83;;;;;;;;;;5057862;28;20477;-63
2023/03/07 11:03:31;;;;;;;4.50;2.70;;;;;;;;;;5071743;28;20203;-63
2023/03/07 11:05:58;;;;;;;3.90;2.83;;;;;;;;;;5060924;28;20218;-64
2023/03/07 11:08:30;;;;;;;2.77;2.47;;;;;;;;;;5068063;28;20927;-63
2023/03/07 11:10:57;;;;;;;6.93;2.83;;;;;;;;;;5058065;28;20300;-63
2023/03/07 11:13:25;;;;;;;3.50;3.20;;;;;;;;;;5067550;28;20203;-63
2023/03/07 11:15:52;;;;;;;4.63;3.00;;;;;;;;;;5059689;28;20675;-64
2023/03/07 11:18:26;;;;;;;2.13;1.77;;;;;;;;;;5068484;28;20214;-64
2023/03/07 11:20:53;;;;;;;2.63;2.43;;;;;;;;;;5059477;28;20257;-63
2023/03/07 11:23:22;;;;;;;3.37;2.30;;;;;;;;;;5067484;28;20207;-64
2023/03/07 11:25:51;;;;;;;4.27;2.60;;;;;;;;;;5072794;28;20282;-64
2023/03/07 11:28:36;;;;;;;3.53;2.50;;;;;;;;;;5061897;28;20548;-64
2023/03/07 11:31:08;;;;;;;3.40;2.60;;;;;;;;;;5079075;28;20218;-64
2023/03/07 11:33:42;;;;;;;2.50;2.30;;;;;;;;;;5081463;28;20215;-64
2023/03/07 11:36:14;;;;;;;4.37;2.27;;;;;;;;;;5066225;28;20197;-64
2023/03/07 11:38:47;;;;;;;5.43;2.73;;;;;;;;;;5064759;28;20238;-62
2023/03/07 11:41:20;;;;;;;3.80;2.70;;;;;;;;;;5062369;28;20264;-62
2023/03/07 11:43:53;;;;;;;2.90;2.57;;;;;;;;;;5065695;28;20254;-62
2023/03/07 11:46:25;;;;;;;2.90;2.70;;;;;;;;;;5066801;28;20260;-63
2023/03/07 11:48:57;;;;;;;4.13;2.23;;;;;;;;;;5064596;28;20628;-63
2023/03/07 11:51:33;;;;;;;3.20;2.07;;;;;;;;;;5057911;28;20712;-63
2023/03/07 11:54:04;;;;;;;2.53;2.30;;;;;;;;;;5056147;28;20264;-63
2023/03/07 11:56:36;;;;;;;3.37;2.70;;;;;;;;;;5061375;28;20212;-63
2023/03/07 11:59:21;;;;;;;2.97;2.57;;;;;;;;;;5058745;28;20208;-63
2023/03/07 12:01:53;;;;;;;2.50;2.30;;;;;;;;;;5071550;28;20214;-62
2023/03/07 12:04:40;;;;;;;3.27;2.70;;;;;;;;;;5067854;28;20230;-62
2023/03/07 12:07:15;;;;;;;2.53;2.33;;;;;;;;;;5058645;28;20202;-62
2023/03/07 12:09:47;;;;;;;4.33;2.50;;;;;;;;;;5077915;28;20205;-63
2023/03/07 12:12:22;;;;;;;2.70;2.50;;;;;;;;;;5070860;28;20209;-63
2023/03/07 12:14:54;;;;;;;3.37;2.90;;;;;;;;;;5067913;28;20282;-63
2023/03/07 12:17:27;;;;;;;2.47;2.37;;;;;;;;;;5067688;28;20211;-63
2023/03/07 12:20:02;;;;;;;3.63;2.53;;;;;;;;;;5074554;28;20824;-63
2023/03/07 12:22:29;;;;;;;3.07;2.67;;;;;;;;;;5073713;28;20228;-63
2023/03/07 12:25:33;;;;;;;2.30;2.10;;;;;;;;;;5072826;28;20700;-63
2023/03/07 12:28:06;;;;;;;3.23;2.20;;;;;;;;;;5034831;28;20211;-62
2023/03/07 12:30:37;;;;;;;4.10;2.70;;;;;;;;;;5069273;28;20875;-62
2023/03/07 12:33:05;;;;;;;3.37;2.50;;;;;;;;;;5085895;28;20297;-62
2023/03/07 12:35:37;;;;;;;3.13;2.37;;;;;;;;;;5068306;28;20199;-62
2023/03/07 12:38:07;;;;;;;2.97;2.53;;;;;;;;;;5065932;28;20705;-62
2023/03/07 12:40:36;;;;;;;2.80;2.60;;;;;;;;;;5065205;28;20203;-62
2023/03/07 12:43:08;;;;;;;2.97;2.47;;;;;;;;;;5072115;28;20211;-61
2023/03/07 12:45:42;;;;;;;4.60;2.30;;;;;;;;;;5061585;28;20235;-64
2023/03/07 12:48:12;;;;;;;3.17;2.77;;;;;;;;;;5067268;28;20222;-63
2023/03/07 12:50:46;;;;;;;5.27;2.70;;;;;;;;;;5067804;28;20665;-63
2023/03/07 12:53:17;;;;;;;2.87;2.63;;;;;;;;;;5068238;28;20207;-63
2023/03/07 12:55:45;;;;;;;2.50;2.30;;;;;;;;;;5067969;28;20294;-62
2023/03/07 12:58:15;;;;;;;3.03;2.40;;;;;;;;;;5065577;28;20213;-62
2023/03/07 13:00:48;;;;;;;4.10;2.37;;;;;;;;;;5068137;28;20661;-62
2023/03/07 13:03:19;;;;;;;2.30;2.10;;;;;;;;;;5070716;28;20203;-62
2023/03/07 13:05:46;;;;;;;3.00;1.97;;;;;;;;;;5077595;28;20219;-63
2023/03/07 13:08:16;;;;;;;3.77;2.60;;;;;;;;;;5073662;28;20210;-62
2023/03/07 13:10:45;;;;;;;4.43;2.33;;;;;;;;;;5072207;28;20604;-62
2023/03/07 13:13:26;;;;;;;3.67;2.30;;;;;;;;;;5070088;28;20202;-62
2023/03/07 13:16:05;;;;;;;4.53;3.10;;;;;;;;;;5073810;28;20191;-62
2023/03/07 13:18:33;;;;;;;3.93;2.47;;;;;;;;;;5061807;28;20584;-62
2023/03/07 13:21:10;;;;;;;3.53;3.03;;;;;;;;;;5067268;28;20859;-63
2023/03/07 13:23:37;;;;;;;7.03;3.33;;;;;;;;;;5070642;28;20202;-64
2023/03/07 13:26:13;;;;;;;3.37;2.30;;;;;;;;;;5077202;28;20222;-65
2023/03/07 13:28:44;;;;;;;2.93;2.73;;;;;;;;;;5067202;28;20210;-64
2023/03/07 13:31:28;;;;;;;4.97;2.53;;;;;;;;;;5073605;28;20256;-64
2023/03/07 13:33:56;;;;;;;4.93;3.33;;;;;;;;;;5068130;28;20211;-64
2023/03/07 13:36:34;;;;;;;7.70;3.37;;;;;;;;;;5078260;28;20248;-63
2023/03/07 13:39:01;;;;;;;2.83;2.63;;;;;;;;;;5073596;28;20203;-63
2023/03/07 13:41:47;;;;;;;3.07;2.60;;;;;;;;;;5082321;28;20210;-64
2023/03/07 13:44:29;;;;;;;6.40;4.25;;;;;;;;;;5067655;28;20444;-63
2023/03/07 13:47:00;;;;;;;5.60;3.30;;;;;;;;;;5064323;28;20241;-63
2023/03/07 13:49:46;;;;;;;4.00;2.90;;;;;;;;;;5067488;28;20213;-64
2023/03/07 13:52:37;;;;;;;4.93;2.97;;;;;;;;;;5075002;28;20572;-64
2023/03/07 13:55:13;;;;;;;12.80;3.17;;;;;;;;;;5077174;28;20649;-64
2023/03/07 13:57:41;;;;;;;4.87;3.23;;;;;;;;;;5067501;28;20206;-63
2023/03/07 14:00:22;;;;;;;4.77;2.87;;;;;;;;;;5065966;28;20257;-64
2023/03/07 14:02:49;;;;;;;5.20;3.13;;;;;;;;;;5068538;28;20203;-63
2023/03/07 14:05:18;;;;;;;4.03;3.20;;;;;;;;;;5072707;28;20222;-63
2023/03/07 14:07:50;;;;;;;4.57;2.87;;;;;;;;;;5080192;28;20219;-63
2023/03/07 14:10:19;;;;;;;5.63;2.83;;;;;;;;;;5077715;28;20289;-63
2023/03/07 14:12:56;;;;;;;3.50;3.20;;;;;;;;;;5083653;28;20210;-67
2023/03/07 14:15:25;;;;;;;3.57;2.60;;;;;;;;;;5070753;28;20193;-75
2023/03/07 14:17:59;;;;;;;5.17;3.47;;;;;;;;;;5085622;28;20206;-63
2023/03/07 14:20:30;;;;;;;3.57;2.83;;;;;;;;;;5074124;28;20207;-63
2023/03/07 14:23:05;;;;;;;3.87;2.97;;;;;;;;;;5062616;28;20580;-61
2023/03/07 14:25:33;;;;;;;3.17;2.87;;;;;;;;;;5066610;28;20254;-63
2023/03/07 14:28:00;;;;;;;5.07;3.47;;;;;;;;;;5066813;28;20211;-63
2023/03/07 14:30:29;;;;;;;4.70;3.10;;;;;;;;;;5069111;28;20210;-63
2023/03/07 14:32:56;;;;;;;4.03;3.10;;;;;;;;;;5086870;28;20297;-65
2023/03/07 14:35:35;;;;;;;2.93;2.50;;;;;;;;;;5073515;28;20677;-63
2023/03/07 14:38:02;;;;;;;2.67;2.43;;;;;;;;;;5066762;28;20242;-64
2023/03/07 14:40:33;;;;;;;3.07;2.53;;;;;;;;;;5069650;28;20199;-64
2023/03/07 14:43:07;;;;;;;3.33;2.87;;;;;;;;;;5072412;28;20202;-63
2023/03/07 14:45:39;;;;;;;3.70;2.23;;;;;;;;;;5070340;28;20231;-63
2023/03/07 14:48:12;;;;;;;2.80;2.17;;;;;;;;;;5074725;28;20211;-63
2023/03/07 14:50:43;;;;;;;2.20;2.00;;;;;;;;;;5081823;28;20312;-63
2023/03/07 14:53:14;;;;;;;2.80;2.50;;;;;;;;;;5085749;28;20210;-64